sensor_id;sensor_type;location;lat;lon;timestamp;temperature;humidity
32293;DHT22;43233;48.608;8.838;2022-09-09T00:02:28;16.10;67.70
32293;DHT22;43233;48.608;8.838;2022-09-09T00:07:48;16.20;68.20
32293;DHT22;43233;48.608;8.838;2022-09-09T00:18:44;15.90;72.90
32293;DHT22;43233;48.608;8.838;2022-09-09T00:21:16;15.70;73.90
32293;DHT22;43233;48.608;8.838;2022-09-09T00:23:54;15.70;73.80
32293;DHT22;43233;48.608;8.838;2022-09-09T00:26:34;15.50;72.10
32293;DHT22;43233;48.608;8.838;2022-09-09T00:31:31;15.60;71.30
32293;DHT22;43233;48.608;8.838;2022-09-09T00:34:18;15.60;71.20
32293;DHT22;43233;48.608;8.838;2022-09-09T00:36:45;15.60;71.00
32293;DHT22;43233;48.608;8.838;2022-09-09T00:39:34;15.70;71.10
32293;DHT22;43233;48.608;8.838;2022-09-09T00:42:25;15.70;72.00
32293;DHT22;43233;48.608;8.838;2022-09-09T00:52:41;15.80;71.50
32293;DHT22;43233;48.608;8.838;2022-09-09T00:56:20;15.90;71.50
32293;DHT22;43233;48.608;8.838;2022-09-09T00:58:14;15.90;71.00
32293;DHT22;43233;48.608;8.838;2022-09-09T01:00:57;16.00;71.40
32293;DHT22;43233;48.608;8.838;2022-09-09T01:03:37;16.00;71.90
32293;DHT22;43233;48.608;8.838;2022-09-09T01:06:30;16.00;72.80
32293;DHT22;43233;48.608;8.838;2022-09-09T01:09:15;15.90;72.70
32293;DHT22;43233;48.608;8.838;2022-09-09T01:19:59;15.40;74.40
32293;DHT22;43233;48.608;8.838;2022-09-09T01:27:57;15.40;75.70
32293;DHT22;43233;48.608;8.838;2022-09-09T01:30:24;15.30;76.70
32293;DHT22;43233;48.608;8.838;2022-09-09T01:32:54;15.20;77.50
32293;DHT22;43233;48.608;8.838;2022-09-09T01:37:46;15.00;80.40
32293;DHT22;43233;48.608;8.838;2022-09-09T01:40:12;15.00;80.90
32293;DHT22;43233;48.608;8.838;2022-09-09T01:42:37;14.90;81.80
32293;DHT22;43233;48.608;8.838;2022-09-09T01:45:04;14.90;83.40
32293;DHT22;43233;48.608;8.838;2022-09-09T01:47:30;14.80;85.00
32293;DHT22;43233;48.608;8.838;2022-09-09T01:49:55;14.70;87.50
32293;DHT22;43233;48.608;8.838;2022-09-09T01:52:21;14.60;90.00
32293;DHT22;43233;48.608;8.838;2022-09-09T01:54:47;14.40;93.90
32293;DHT22;43233;48.608;8.838;2022-09-09T02:00:10;14.20;99.40
32293;DHT22;43233;48.608;8.838;2022-09-09T02:07:47;14.20;99.90
32293;DHT22;43233;48.608;8.838;2022-09-09T02:10:28;14.30;99.90
32293;DHT22;43233;48.608;8.838;2022-09-09T02:13:04;14.40;99.90
32293;DHT22;43233;48.608;8.838;2022-09-09T02:15:43;14.50;99.60
32293;DHT22;43233;48.608;8.838;2022-09-09T02:18:13;14.30;99.90
32293;DHT22;43233;48.608;8.838;2022-09-09T02:20:41;14.30;99.90
32293;DHT22;43233;48.608;8.838;2022-09-09T02:23:08;14.30;99.90
32293;DHT22;43233;48.608;8.838;2022-09-09T02:25:36;14.40;99.70
32293;DHT22;43233;48.608;8.838;2022-09-09T02:28:04;14.30;99.50
32293;DHT22;43233;48.608;8.838;2022-09-09T02:30:32;14.20;99.90
32293;DHT22;43233;48.608;8.838;2022-09-09T02:33:02;14.20;99.90
32293;DHT22;43233;48.608;8.838;2022-09-09T02:35:30;14.10;99.90
32293;DHT22;43233;48.608;8.838;2022-09-09T02:37:59;14.00;99.90
32293;DHT22;43233;48.608;8.838;2022-09-09T02:40:26;14.00;99.90
32293;DHT22;43233;48.608;8.838;2022-09-09T02:42:54;14.00;99.90
32293;DHT22;43233;48.608;8.838;2022-09-09T02:45:24;14.00;99.90
32293;DHT22;43233;48.608;8.838;2022-09-09T02:47:59;13.90;99.90
32293;DHT22;43233;48.608;8.838;2022-09-09T02:50:32;13.90;99.90
32293;DHT22;43233;48.608;8.838;2022-09-09T02:55:47;13.90;99.90
32293;DHT22;43233;48.608;8.838;2022-09-09T02:58:16;13.70;99.90
32293;DHT22;43233;48.608;8.838;2022-09-09T03:00:46;13.70;99.90
32293;DHT22;43233;48.608;8.838;2022-09-09T03:03:12;13.70;99.90
32293;DHT22;43233;48.608;8.838;2022-09-09T03:05:38;13.60;99.90
32293;DHT22;43233;48.608;8.838;2022-09-09T03:08:04;13.70;99.90
32293;DHT22;43233;48.608;8.838;2022-09-09T03:10:31;13.80;99.90
32293;DHT22;43233;48.608;8.838;2022-09-09T03:12:57;13.80;99.90
32293;DHT22;43233;48.608;8.838;2022-09-09T03:15:23;13.90;99.90
32293;DHT22;43233;48.608;8.838;2022-09-09T03:17:48;14.00;99.90
32293;DHT22;43233;48.608;8.838;2022-09-09T03:20:14;14.00;99.90
32293;DHT22;43233;48.608;8.838;2022-09-09T03:22:40;14.00;99.90
32293;DHT22;43233;48.608;8.838;2022-09-09T03:25:06;13.90;99.90
32293;DHT22;43233;48.608;8.838;2022-09-09T03:27:32;13.90;99.90
32293;DHT22;43233;48.608;8.838;2022-09-09T03:29:58;13.90;99.90
32293;DHT22;43233;48.608;8.838;2022-09-09T03:32:24;14.00;99.90
32293;DHT22;43233;48.608;8.838;2022-09-09T03:34:51;13.80;99.90
32293;DHT22;43233;48.608;8.838;2022-09-09T03:37:20;13.80;99.90
32293;DHT22;43233;48.608;8.838;2022-09-09T03:39:47;13.60;99.90
32293;DHT22;43233;48.608;8.838;2022-09-09T03:42:14;13.30;99.90
32293;DHT22;43233;48.608;8.838;2022-09-09T03:44:40;13.20;99.90
32293;DHT22;43233;48.608;8.838;2022-09-09T03:47:07;13.20;99.90
32293;DHT22;43233;48.608;8.838;2022-09-09T03:49:33;13.20;99.90
32293;DHT22;43233;48.608;8.838;2022-09-09T03:51:58;13.20;99.90
32293;DHT22;43233;48.608;8.838;2022-09-09T03:54:25;13.30;99.90
32293;DHT22;43233;48.608;8.838;2022-09-09T03:56:51;13.40;99.90
32293;DHT22;43233;48.608;8.838;2022-09-09T03:59:16;13.60;99.90
32293;DHT22;43233;48.608;8.838;2022-09-09T04:01:42;13.70;99.90
32293;DHT22;43233;48.608;8.838;2022-09-09T04:04:08;13.90;99.90
32293;DHT22;43233;48.608;8.838;2022-09-09T04:06:34;14.10;99.90
32293;DHT22;43233;48.608;8.838;2022-09-09T04:09:00;14.20;99.90
32293;DHT22;43233;48.608;8.838;2022-09-09T04:11:27;14.40;99.90
32293;DHT22;43233;48.608;8.838;2022-09-09T04:13:53;14.40;99.90
32293;DHT22;43233;48.608;8.838;2022-09-09T04:16:19;14.50;99.90
32293;DHT22;43233;48.608;8.838;2022-09-09T04:18:45;14.40;99.90
32293;DHT22;43233;48.608;8.838;2022-09-09T04:21:11;14.30;99.90
32293;DHT22;43233;48.608;8.838;2022-09-09T04:23:38;14.30;99.90
32293;DHT22;43233;48.608;8.838;2022-09-09T04:26:04;14.20;99.90
32293;DHT22;43233;48.608;8.838;2022-09-09T04:28:33;14.10;99.90
32293;DHT22;43233;48.608;8.838;2022-09-09T04:31:16;14.10;99.90
32293;DHT22;43233;48.608;8.838;2022-09-09T04:33:43;14.10;99.90
32293;DHT22;43233;48.608;8.838;2022-09-09T04:36:09;14.10;99.90
32293;DHT22;43233;48.608;8.838;2022-09-09T04:38:34;14.00;99.90
32293;DHT22;43233;48.608;8.838;2022-09-09T04:41:00;14.00;99.90
32293;DHT22;43233;48.608;8.838;2022-09-09T04:43:26;14.00;99.90
32293;DHT22;43233;48.608;8.838;2022-09-09T04:45:53;14.00;99.90
32293;DHT22;43233;48.608;8.838;2022-09-09T04:48:19;14.00;99.90
32293;DHT22;43233;48.608;8.838;2022-09-09T04:50:57;13.90;99.90
32293;DHT22;43233;48.608;8.838;2022-09-09T04:53:23;13.90;99.90
32293;DHT22;43233;48.608;8.838;2022-09-09T04:55:51;13.80;99.90
32293;DHT22;43233;48.608;8.838;2022-09-09T04:58:16;13.80;99.90
32293;DHT22;43233;48.608;8.838;2022-09-09T05:00:42;13.80;99.90
32293;DHT22;43233;48.608;8.838;2022-09-09T05:03:08;13.90;99.90
32293;DHT22;43233;48.608;8.838;2022-09-09T05:05:34;13.80;99.90
32293;DHT22;43233;48.608;8.838;2022-09-09T05:08:05;13.90;99.90
32293;DHT22;43233;48.608;8.838;2022-09-09T05:10:32;13.90;99.90
32293;DHT22;43233;48.608;8.838;2022-09-09T05:12:59;13.90;99.90
32293;DHT22;43233;48.608;8.838;2022-09-09T05:15:27;13.90;99.90
32293;DHT22;43233;48.608;8.838;2022-09-09T05:17:56;13.90;99.90
32293;DHT22;43233;48.608;8.838;2022-09-09T05:20:21;13.90;99.90
32293;DHT22;43233;48.608;8.838;2022-09-09T05:22:47;14.00;99.90
32293;DHT22;43233;48.608;8.838;2022-09-09T05:25:13;14.00;99.90
32293;DHT22;43233;48.608;8.838;2022-09-09T05:27:39;14.00;99.90
32293;DHT22;43233;48.608;8.838;2022-09-09T05:30:05;14.00;99.90
32293;DHT22;43233;48.608;8.838;2022-09-09T05:32:30;14.10;99.90
32293;DHT22;43233;48.608;8.838;2022-09-09T05:34:59;14.10;99.90
32293;DHT22;43233;48.608;8.838;2022-09-09T05:37:25;14.10;99.90
32293;DHT22;43233;48.608;8.838;2022-09-09T05:39:50;14.10;99.90
32293;DHT22;43233;48.608;8.838;2022-09-09T05:42:16;14.10;99.90
32293;DHT22;43233;48.608;8.838;2022-09-09T05:44:42;14.10;99.90
32293;DHT22;43233;48.608;8.838;2022-09-09T05:47:08;14.10;99.90
32293;DHT22;43233;48.608;8.838;2022-09-09T05:49:34;14.10;99.90
32293;DHT22;43233;48.608;8.838;2022-09-09T05:52:00;14.10;99.90
32293;DHT22;43233;48.608;8.838;2022-09-09T05:54:25;14.10;99.90
32293;DHT22;43233;48.608;8.838;2022-09-09T05:56:51;14.20;99.90
32293;DHT22;43233;48.608;8.838;2022-09-09T05:59:18;14.20;99.90
32293;DHT22;43233;48.608;8.838;2022-09-09T06:01:43;14.30;99.90
32293;DHT22;43233;48.608;8.838;2022-09-09T06:04:10;14.30;99.90
32293;DHT22;43233;48.608;8.838;2022-09-09T06:06:37;14.20;99.90
32293;DHT22;43233;48.608;8.838;2022-09-09T06:09:06;14.20;99.90
32293;DHT22;43233;48.608;8.838;2022-09-09T06:11:36;14.20;99.90
32293;DHT22;43233;48.608;8.838;2022-09-09T06:14:03;14.30;99.90
32293;DHT22;43233;48.608;8.838;2022-09-09T06:16:29;14.30;99.90
32293;DHT22;43233;48.608;8.838;2022-09-09T06:18:58;14.40;99.90
32293;DHT22;43233;48.608;8.838;2022-09-09T06:21:26;14.40;99.90
32293;DHT22;43233;48.608;8.838;2022-09-09T06:23:53;14.50;99.90
32293;DHT22;43233;48.608;8.838;2022-09-09T06:26:23;14.50;99.90
32293;DHT22;43233;48.608;8.838;2022-09-09T06:28:50;14.60;99.90
32293;DHT22;43233;48.608;8.838;2022-09-09T06:31:20;14.60;99.90
32293;DHT22;43233;48.608;8.838;2022-09-09T06:33:50;14.60;99.90
32293;DHT22;43233;48.608;8.838;2022-09-09T06:36:24;14.70;99.90
32293;DHT22;43233;48.608;8.838;2022-09-09T06:38:50;14.70;99.90
32293;DHT22;43233;48.608;8.838;2022-09-09T06:41:18;14.70;99.90
32293;DHT22;43233;48.608;8.838;2022-09-09T06:43:47;14.70;99.90
32293;DHT22;43233;48.608;8.838;2022-09-09T06:46:24;14.80;99.90
32293;DHT22;43233;48.608;8.838;2022-09-09T06:48:53;14.90;99.90
32293;DHT22;43233;48.608;8.838;2022-09-09T06:51:24;14.90;99.90
32293;DHT22;43233;48.608;8.838;2022-09-09T06:53:53;15.00;99.90
32293;DHT22;43233;48.608;8.838;2022-09-09T06:56:33;15.10;99.90
32293;DHT22;43233;48.608;8.838;2022-09-09T06:59:00;15.10;99.90
32293;DHT22;43233;48.608;8.838;2022-09-09T07:01:33;15.20;99.90
32293;DHT22;43233;48.608;8.838;2022-09-09T07:03:59;15.30;99.90
32293;DHT22;43233;48.608;8.838;2022-09-09T07:06:28;15.30;99.90
32293;DHT22;43233;48.608;8.838;2022-09-09T07:08:56;15.30;99.90
32293;DHT22;43233;48.608;8.838;2022-09-09T07:11:27;15.30;99.90
32293;DHT22;43233;48.608;8.838;2022-09-09T07:13:54;15.30;99.90
32293;DHT22;43233;48.608;8.838;2022-09-09T07:16:21;15.30;99.90
32293;DHT22;43233;48.608;8.838;2022-09-09T07:18:51;15.40;99.90
32293;DHT22;43233;48.608;8.838;2022-09-09T07:21:17;15.40;99.90
32293;DHT22;43233;48.608;8.838;2022-09-09T07:23:46;15.60;99.90
32293;DHT22;43233;48.608;8.838;2022-09-09T07:26:14;15.70;99.90
32293;DHT22;43233;48.608;8.838;2022-09-09T07:28:40;15.60;99.90
32293;DHT22;43233;48.608;8.838;2022-09-09T07:31:12;15.70;99.90
32293;DHT22;43233;48.608;8.838;2022-09-09T07:33:38;15.70;99.90
32293;DHT22;43233;48.608;8.838;2022-09-09T07:36:13;15.80;99.90
32293;DHT22;43233;48.608;8.838;2022-09-09T07:38:41;15.80;99.90
32293;DHT22;43233;48.608;8.838;2022-09-09T07:41:11;15.80;99.90
32293;DHT22;43233;48.608;8.838;2022-09-09T07:43:41;16.00;99.90
32293;DHT22;43233;48.608;8.838;2022-09-09T07:46:08;16.10;99.90
32293;DHT22;43233;48.608;8.838;2022-09-09T07:48:34;16.20;99.90
32293;DHT22;43233;48.608;8.838;2022-09-09T07:51:30;16.30;99.90
32293;DHT22;43233;48.608;8.838;2022-09-09T07:53:58;16.30;99.90
32293;DHT22;43233;48.608;8.838;2022-09-09T07:56:29;16.40;99.90
32293;DHT22;43233;48.608;8.838;2022-09-09T07:58:56;16.40;99.90
32293;DHT22;43233;48.608;8.838;2022-09-09T08:01:25;16.60;99.90
32293;DHT22;43233;48.608;8.838;2022-09-09T08:04:14;16.80;99.90
32293;DHT22;43233;48.608;8.838;2022-09-09T08:06:43;16.90;99.90
32293;DHT22;43233;48.608;8.838;2022-09-09T08:09:09;17.00;99.90
32293;DHT22;43233;48.608;8.838;2022-09-09T08:11:36;17.10;99.90
32293;DHT22;43233;48.608;8.838;2022-09-09T08:14:03;17.20;99.90
32293;DHT22;43233;48.608;8.838;2022-09-09T08:16:31;17.50;99.90
32293;DHT22;43233;48.608;8.838;2022-09-09T08:18:58;17.50;99.90
32293;DHT22;43233;48.608;8.838;2022-09-09T08:21:27;17.60;99.90
32293;DHT22;43233;48.608;8.838;2022-09-09T08:23:54;17.60;99.90
32293;DHT22;43233;48.608;8.838;2022-09-09T08:26:25;17.70;99.90
32293;DHT22;43233;48.608;8.838;2022-09-09T08:28:53;17.90;99.90
32293;DHT22;43233;48.608;8.838;2022-09-09T08:31:21;18.20;97.40
32293;DHT22;43233;48.608;8.838;2022-09-09T08:33:47;18.10;96.00
32293;DHT22;43233;48.608;8.838;2022-09-09T08:36:21;18.30;92.70
32293;DHT22;43233;48.608;8.838;2022-09-09T08:38:48;18.40;92.60
32293;DHT22;43233;48.608;8.838;2022-09-09T08:52:15;16.70;81.50
32293;DHT22;43233;48.608;8.838;2022-09-09T08:54:41;16.50;95.20
32293;DHT22;43233;48.608;8.838;2022-09-09T08:57:20;16.50;99.90
32293;DHT22;43233;48.608;8.838;2022-09-09T08:59:47;16.30;99.90
32293;DHT22;43233;48.608;8.838;2022-09-09T09:02:24;16.30;99.90
32293;DHT22;43233;48.608;8.838;2022-09-09T09:10:50;16.40;99.90
32293;DHT22;43233;48.608;8.838;2022-09-09T09:18:54;16.30;99.90
32293;DHT22;43233;48.608;8.838;2022-09-09T09:24:01;16.80;99.90
32293;DHT22;43233;48.608;8.838;2022-09-09T09:26:33;16.90;99.90
32293;DHT22;43233;48.608;8.838;2022-09-09T09:29:11;17.00;99.90
32293;DHT22;43233;48.608;8.838;2022-09-09T09:31:37;17.00;99.90
32293;DHT22;43233;48.608;8.838;2022-09-09T09:34:03;17.10;99.90
32293;DHT22;43233;48.608;8.838;2022-09-09T09:36:46;17.20;99.90
32293;DHT22;43233;48.608;8.838;2022-09-09T09:39:27;17.30;99.90
32293;DHT22;43233;48.608;8.838;2022-09-09T09:41:53;17.40;99.90
32293;DHT22;43233;48.608;8.838;2022-09-09T09:44:30;17.40;99.90
32293;DHT22;43233;48.608;8.838;2022-09-09T09:47:13;17.40;99.90
32293;DHT22;43233;48.608;8.838;2022-09-09T09:49:57;17.50;99.90
32293;DHT22;43233;48.608;8.838;2022-09-09T09:52:26;17.70;99.90
32293;DHT22;43233;48.608;8.838;2022-09-09T09:54:54;17.80;99.90
32293;DHT22;43233;48.608;8.838;2022-09-09T09:57:31;18.00;99.90
32293;DHT22;43233;48.608;8.838;2022-09-09T10:00:04;18.10;99.90
32293;DHT22;43233;48.608;8.838;2022-09-09T10:02:38;18.40;99.90
32293;DHT22;43233;48.608;8.838;2022-09-09T10:05:19;18.50;99.90
32293;DHT22;43233;48.608;8.838;2022-09-09T10:07:46;18.60;99.90
32293;DHT22;43233;48.608;8.838;2022-09-09T10:10:18;18.70;99.90
32293;DHT22;43233;48.608;8.838;2022-09-09T10:13:00;18.50;98.00
32293;DHT22;43233;48.608;8.838;2022-09-09T10:15:52;18.50;99.90
32293;DHT22;43233;48.608;8.838;2022-09-09T10:21:26;18.60;99.90
32293;DHT22;43233;48.608;8.838;2022-09-09T10:27:15;18.30;99.90
32293;DHT22;43233;48.608;8.838;2022-09-09T10:29:47;18.60;97.70
32293;DHT22;43233;48.608;8.838;2022-09-09T10:32:37;18.90;91.10
32293;DHT22;43233;48.608;8.838;2022-09-09T10:46:41;17.60;99.90
32293;DHT22;43233;48.608;8.838;2022-09-09T10:52:30;17.20;99.90
32293;DHT22;43233;48.608;8.838;2022-09-09T10:55:16;16.70;99.90
32293;DHT22;43233;48.608;8.838;2022-09-09T10:57:56;16.40;99.90
32293;DHT22;43233;48.608;8.838;2022-09-09T11:00:25;15.80;99.90
32293;DHT22;43233;48.608;8.838;2022-09-09T11:03:00;15.40;99.90
32293;DHT22;43233;48.608;8.838;2022-09-09T11:08:23;15.10;99.90
32293;DHT22;43233;48.608;8.838;2022-09-09T11:11:06;14.80;99.90
32293;DHT22;43233;48.608;8.838;2022-09-09T11:14:01;14.70;99.90
32293;DHT22;43233;48.608;8.838;2022-09-09T11:16:50;14.70;99.90
32293;DHT22;43233;48.608;8.838;2022-09-09T11:19:39;14.60;99.90
32293;DHT22;43233;48.608;8.838;2022-09-09T11:22:29;14.60;99.90
32293;DHT22;43233;48.608;8.838;2022-09-09T11:25:08;14.60;99.90
32293;DHT22;43233;48.608;8.838;2022-09-09T11:27:59;14.60;99.90
32293;DHT22;43233;48.608;8.838;2022-09-09T11:33:32;14.90;99.90
32293;DHT22;43233;48.608;8.838;2022-09-09T11:36:11;14.90;99.90
32293;DHT22;43233;48.608;8.838;2022-09-09T11:41:16;15.20;99.90
32293;DHT22;43233;48.608;8.838;2022-09-09T11:46:10;15.50;99.90
32293;DHT22;43233;48.608;8.838;2022-09-09T11:48:41;15.70;99.90
32293;DHT22;43233;48.608;8.838;2022-09-09T11:54:02;16.00;99.90
32293;DHT22;43233;48.608;8.838;2022-09-09T11:56:33;16.10;99.90
32293;DHT22;43233;48.608;8.838;2022-09-09T11:59:03;16.30;99.90
32293;DHT22;43233;48.608;8.838;2022-09-09T12:01:34;16.60;99.90
32293;DHT22;43233;48.608;8.838;2022-09-09T12:14:58;17.00;99.90
32293;DHT22;43233;48.608;8.838;2022-09-09T12:17:29;16.90;99.90
32293;DHT22;43233;48.608;8.838;2022-09-09T12:20:12;16.90;99.90
32293;DHT22;43233;48.608;8.838;2022-09-09T12:22:52;17.00;99.90
32293;DHT22;43233;48.608;8.838;2022-09-09T12:28:27;17.30;99.90
32293;DHT22;43233;48.608;8.838;2022-09-09T12:31:11;17.60;99.90
32293;DHT22;43233;48.608;8.838;2022-09-09T12:33:43;17.80;99.90
32293;DHT22;43233;48.608;8.838;2022-09-09T12:36:16;18.10;99.90
32293;DHT22;43233;48.608;8.838;2022-09-09T12:38:44;18.50;99.90
32293;DHT22;43233;48.608;8.838;2022-09-09T12:41:22;18.70;98.50
32293;DHT22;43233;48.608;8.838;2022-09-09T12:43:48;18.70;82.60
32293;DHT22;43233;48.608;8.838;2022-09-09T12:46:24;18.60;84.20
32293;DHT22;43233;48.608;8.838;2022-09-09T12:48:54;18.70;80.30
32293;DHT22;43233;48.608;8.838;2022-09-09T12:51:29;18.70;83.50
32293;DHT22;43233;48.608;8.838;2022-09-09T12:53:56;18.70;81.60
32293;DHT22;43233;48.608;8.838;2022-09-09T12:56:29;18.50;81.70
32293;DHT22;43233;48.608;8.838;2022-09-09T12:58:56;18.70;76.80
32293;DHT22;43233;48.608;8.838;2022-09-09T13:01:24;19.10;76.00
32293;DHT22;43233;48.608;8.838;2022-09-09T13:03:50;19.30;71.60
32293;DHT22;43233;48.608;8.838;2022-09-09T13:06:22;19.10;67.40
32293;DHT22;43233;48.608;8.838;2022-09-09T13:08:52;19.00;67.90
32293;DHT22;43233;48.608;8.838;2022-09-09T13:11:29;18.90;67.40
32293;DHT22;43233;48.608;8.838;2022-09-09T13:13:57;18.70;68.10
32293;DHT22;43233;48.608;8.838;2022-09-09T13:16:27;18.80;68.80
32293;DHT22;43233;48.608;8.838;2022-09-09T13:18:59;19.20;65.80
32293;DHT22;43233;48.608;8.838;2022-09-09T13:21:36;19.20;61.30
32293;DHT22;43233;48.608;8.838;2022-09-09T13:24:30;19.20;59.70
32293;DHT22;43233;48.608;8.838;2022-09-09T13:27:24;19.40;57.90
32293;DHT22;43233;48.608;8.838;2022-09-09T13:29:53;19.80;57.50
32293;DHT22;43233;48.608;8.838;2022-09-09T13:32:23;20.10;54.60
32293;DHT22;43233;48.608;8.838;2022-09-09T13:37:36;20.70;53.50
32293;DHT22;43233;48.608;8.838;2022-09-09T13:40:03;20.80;52.20
32293;DHT22;43233;48.608;8.838;2022-09-09T13:42:34;21.10;52.60
32293;DHT22;43233;48.608;8.838;2022-09-09T13:45:02;21.40;46.30
32293;DHT22;43233;48.608;8.838;2022-09-09T13:47:35;21.10;49.10
32293;DHT22;43233;48.608;8.838;2022-09-09T13:50:25;21.30;50.00
32293;DHT22;43233;48.608;8.838;2022-09-09T13:52:56;21.30;47.60
32293;DHT22;43233;48.608;8.838;2022-09-09T13:55:25;21.60;45.20
32293;DHT22;43233;48.608;8.838;2022-09-09T13:58:00;21.30;45.20
32293;DHT22;43233;48.608;8.838;2022-09-09T14:00:29;21.10;46.70
32293;DHT22;43233;48.608;8.838;2022-09-09T14:02:55;21.80;42.20
32293;DHT22;43233;48.608;8.838;2022-09-09T14:05:20;21.60;41.10
32293;DHT22;43233;48.608;8.838;2022-09-09T14:07:48;21.60;43.50
32293;DHT22;43233;48.608;8.838;2022-09-09T14:10:14;21.20;42.90
32293;DHT22;43233;48.608;8.838;2022-09-09T14:12:41;21.00;43.10
32293;DHT22;43233;48.608;8.838;2022-09-09T14:15:08;20.80;44.90
32293;DHT22;43233;48.608;8.838;2022-09-09T14:17:35;20.80;45.40
32293;DHT22;43233;48.608;8.838;2022-09-09T14:20:02;21.20;46.40
32293;DHT22;43233;48.608;8.838;2022-09-09T14:22:29;21.20;43.50
32293;DHT22;43233;48.608;8.838;2022-09-09T14:24:54;21.20;43.20
32293;DHT22;43233;48.608;8.838;2022-09-09T14:27:20;21.40;43.40
32293;DHT22;43233;48.608;8.838;2022-09-09T14:29:46;21.90;43.00
32293;DHT22;43233;48.608;8.838;2022-09-09T14:32:12;22.00;41.20
32293;DHT22;43233;48.608;8.838;2022-09-09T14:34:37;22.00;40.80
32293;DHT22;43233;48.608;8.838;2022-09-09T14:37:03;21.70;41.30
32293;DHT22;43233;48.608;8.838;2022-09-09T14:39:29;21.00;44.10
32293;DHT22;43233;48.608;8.838;2022-09-09T14:41:55;21.10;44.50
32293;DHT22;43233;48.608;8.838;2022-09-09T14:44:20;21.30;46.30
32293;DHT22;43233;48.608;8.838;2022-09-09T14:46:47;21.40;46.80
32293;DHT22;43233;48.608;8.838;2022-09-09T14:49:15;21.70;44.00
32293;DHT22;43233;48.608;8.838;2022-09-09T14:51:41;21.90;42.70
32293;DHT22;43233;48.608;8.838;2022-09-09T14:54:07;21.60;44.60
32293;DHT22;43233;48.608;8.838;2022-09-09T14:56:33;21.70;44.80
32293;DHT22;43233;48.608;8.838;2022-09-09T14:59:02;21.80;43.80
32293;DHT22;43233;48.608;8.838;2022-09-09T15:01:29;21.70;43.60
32293;DHT22;43233;48.608;8.838;2022-09-09T15:03:59;21.90;44.00
32293;DHT22;43233;48.608;8.838;2022-09-09T15:06:29;22.30;42.80
32293;DHT22;43233;48.608;8.838;2022-09-09T15:08:55;22.90;39.40
32293;DHT22;43233;48.608;8.838;2022-09-09T15:11:27;22.90;37.50
32293;DHT22;43233;48.608;8.838;2022-09-09T15:13:53;22.90;37.70
32293;DHT22;43233;48.608;8.838;2022-09-09T15:16:21;21.90;39.80
32293;DHT22;43233;48.608;8.838;2022-09-09T15:18:51;21.50;38.90
32293;DHT22;43233;48.608;8.838;2022-09-09T15:21:19;21.30;39.10
32293;DHT22;43233;48.608;8.838;2022-09-09T15:23:45;21.50;39.30
32293;DHT22;43233;48.608;8.838;2022-09-09T15:26:12;21.60;40.20
32293;DHT22;43233;48.608;8.838;2022-09-09T15:28:43;21.40;40.10
32293;DHT22;43233;48.608;8.838;2022-09-09T15:31:13;21.10;41.80
32293;DHT22;43233;48.608;8.838;2022-09-09T15:33:53;20.80;44.50
32293;DHT22;43233;48.608;8.838;2022-09-09T15:36:24;20.40;42.30
32293;DHT22;43233;48.608;8.838;2022-09-09T15:38:50;20.20;41.40
32293;DHT22;43233;48.608;8.838;2022-09-09T15:41:21;20.10;42.70
32293;DHT22;43233;48.608;8.838;2022-09-09T15:43:56;19.90;45.20
32293;DHT22;43233;48.608;8.838;2022-09-09T15:46:29;19.70;46.90
32293;DHT22;43233;48.608;8.838;2022-09-09T15:48:56;19.50;47.50
32293;DHT22;43233;48.608;8.838;2022-09-09T15:51:23;19.30;46.60
32293;DHT22;43233;48.608;8.838;2022-09-09T15:53:57;19.20;47.00
32293;DHT22;43233;48.608;8.838;2022-09-09T15:56:24;19.20;47.50
32293;DHT22;43233;48.608;8.838;2022-09-09T15:58:50;19.10;48.20
32293;DHT22;43233;48.608;8.838;2022-09-09T16:01:18;19.00;49.70
32293;DHT22;43233;48.608;8.838;2022-09-09T16:03:45;19.00;50.10
32293;DHT22;43233;48.608;8.838;2022-09-09T16:06:13;18.90;51.50
32293;DHT22;43233;48.608;8.838;2022-09-09T16:08:42;18.80;52.40
32293;DHT22;43233;48.608;8.838;2022-09-09T16:11:22;18.70;54.60
32293;DHT22;43233;48.608;8.838;2022-09-09T16:13:50;18.40;51.70
32293;DHT22;43233;48.608;8.838;2022-09-09T16:16:18;18.00;52.10
32293;DHT22;43233;48.608;8.838;2022-09-09T16:18:53;18.00;53.50
32293;DHT22;43233;48.608;8.838;2022-09-09T16:21:21;17.90;54.40
32293;DHT22;43233;48.608;8.838;2022-09-09T16:23:49;17.80;55.70
32293;DHT22;43233;48.608;8.838;2022-09-09T16:26:16;17.80;57.10
32293;DHT22;43233;48.608;8.838;2022-09-09T16:28:42;17.80;59.80
32293;DHT22;43233;48.608;8.838;2022-09-09T16:31:10;17.90;61.30
32293;DHT22;43233;48.608;8.838;2022-09-09T16:33:39;18.10;59.50
32293;DHT22;43233;48.608;8.838;2022-09-09T16:36:07;18.20;58.20
32293;DHT22;43233;48.608;8.838;2022-09-09T16:38:33;18.20;58.90
32293;DHT22;43233;48.608;8.838;2022-09-09T16:41:01;18.50;57.00
32293;DHT22;43233;48.608;8.838;2022-09-09T16:43:27;18.40;56.80
32293;DHT22;43233;48.608;8.838;2022-09-09T16:45:53;18.50;56.80
32293;DHT22;43233;48.608;8.838;2022-09-09T16:48:18;18.20;56.70
32293;DHT22;43233;48.608;8.838;2022-09-09T16:50:45;18.20;57.70
32293;DHT22;43233;48.608;8.838;2022-09-09T16:53:11;18.20;57.90
32293;DHT22;43233;48.608;8.838;2022-09-09T16:55:39;18.20;57.90
32293;DHT22;43233;48.608;8.838;2022-09-09T16:58:06;18.10;58.20
32293;DHT22;43233;48.608;8.838;2022-09-09T17:00:31;18.20;58.30
32293;DHT22;43233;48.608;8.838;2022-09-09T17:02:57;18.40;57.30
32293;DHT22;43233;48.608;8.838;2022-09-09T17:05:24;18.60;57.10
32293;DHT22;43233;48.608;8.838;2022-09-09T17:07:50;18.80;56.80
32293;DHT22;43233;48.608;8.838;2022-09-09T17:10:16;19.00;55.80
32293;DHT22;43233;48.608;8.838;2022-09-09T17:12:42;19.20;55.60
32293;DHT22;43233;48.608;8.838;2022-09-09T17:15:08;19.20;55.50
32293;DHT22;43233;48.608;8.838;2022-09-09T17:17:34;18.70;56.00
32293;DHT22;43233;48.608;8.838;2022-09-09T17:20:00;18.50;57.80
32293;DHT22;43233;48.608;8.838;2022-09-09T17:22:27;18.10;59.80
32293;DHT22;43233;48.608;8.838;2022-09-09T17:24:54;17.80;60.80
32293;DHT22;43233;48.608;8.838;2022-09-09T17:27:20;17.70;61.30
32293;DHT22;43233;48.608;8.838;2022-09-09T17:29:46;17.70;62.00
32293;DHT22;43233;48.608;8.838;2022-09-09T17:32:12;17.70;62.00
32293;DHT22;43233;48.608;8.838;2022-09-09T17:34:38;17.60;62.30
32293;DHT22;43233;48.608;8.838;2022-09-09T17:37:04;17.50;62.70
32293;DHT22;43233;48.608;8.838;2022-09-09T17:39:31;17.40;63.10
32293;DHT22;43233;48.608;8.838;2022-09-09T17:41:57;17.60;63.00
32293;DHT22;43233;48.608;8.838;2022-09-09T17:44:23;17.70;62.50
32293;DHT22;43233;48.608;8.838;2022-09-09T17:46:48;17.60;62.00
32293;DHT22;43233;48.608;8.838;2022-09-09T17:49:16;17.70;62.10
32293;DHT22;43233;48.608;8.838;2022-09-09T17:51:44;17.80;61.70
32293;DHT22;43233;48.608;8.838;2022-09-09T17:54:13;17.90;61.20